• Join FlightAware (Why Join?)
  • Login
  • US Flag 
10:39AM EST


 

Airport Tracker/Info


-or-


 

Live Flight TrackerFlight Track Log ✈ N787FT ✈ 16-Apr-2013 ✈ KSBD - KSBD

Flight Track Log - Related Links

Times and Time Zones

All times are in EDT time to prevent confusion due to time zone crossing. See the N787FT flight status page for this flight to view local times or setup timezone preferences in your user account.

Time Position Orientation Groundspeed Altitude Reporting Facility
EDT Latitude Longitude Course Direction KTS MPH feet Rate Location/Type
12:12PM 34.0780 -117.2680 221° Southwest 184 212 2,600  Level FlightAware
12:12PM 34.0610 -117.2860 221° Southwest 213 245 3,100 1,620 Climbing FlightAware
12:12PM 34.0410 -117.3160 231° Southwest 242 278 4,100 1,860 Climbing FlightAware
12:13PM 34.0260 -117.3250 206° Southwest 255 293 4,500 2,100 Climbing FlightAware
12:13PM 33.9950 -117.3270 183° South 265 305 5,500 2,220 Climbing FlightAware
12:13PM 33.9870 -117.3280 186° South 265 305 5,800 2,100 Climbing FlightAware
12:14PM 33.9470 -117.3290 181° South 275 316 6,900 2,400 Climbing FlightAware
12:14PM 33.9160 -117.3220 169° South 282 325 7,800 1,980 Climbing FlightAware
12:15PM 33.8850 -117.3110 164° South 297 342 8,400 1,380 Climbing FlightAware
12:15PM 33.8510 -117.2980 162° South 304 350 9,100 1,680 Climbing FlightAware
12:16PM 33.7920 -117.2770 164° South 317 365 10,400 1,500 Climbing FlightAware
12:16PM 33.7240 -117.2520 163° South 329 379 11,300 1,080 Climbing FlightAware
12:17PM 33.6640 -117.2300 163° South 330 380 12,000 480 Climbing FlightAware
12:18PM 33.6040 -117.2080 163° South 351 404 12,000  Level FlightAware
12:19PM 33.5330 -117.1800 162° South 378 435 12,000  Level FlightAware
12:19PM 33.4740 -117.1420 152° Southeast 397 457 12,000  Level FlightAware
12:20PM 33.4140 -117.1010 150° Southeast 393 452 12,000  Level FlightAware
12:20PM 33.3780 -117.0880 163° South 374 430 12,000  Level FlightAware
12:21PM 33.3130 -117.1170 200° South 331 381 12,000  Level FlightAware
12:22PM 33.2670 -117.1750 227° Southwest 326 375 12,000  Level FlightAware
12:22PM 33.2300 -117.2250 229° Southwest 315 362 12,000  Level FlightAware
12:23PM 33.2240 -117.2710 261° West 290 334 12,000  Level FlightAware
12:23PM 33.2310 -117.3370 277° West 262 302 12,000  Level FlightAware
12:24PM 33.2370 -117.3890 278° West 223 257 12,000  Level FlightAware
12:25PM 33.2430 -117.4330 279° West 171 197 12,000  Level FlightAware
12:26PM 33.2480 -117.4720 279° West 148 170 12,000 -120 Level FlightAware
12:26PM 33.2520 -117.5010 279° West 128 147 11,900 -240 Descending FlightAware
12:27PM 33.2580 -117.5320 283° West 131 151 11,700  Descending FlightAware
12:28PM 33.2610 -117.5600 277° West 122 140 11,900 180 Climbing FlightAware
12:28PM 33.2640 -117.5860 278° West 129 148 12,000 60 Climbing FlightAware
12:29PM 33.2680 -117.6200 278° West 127 146 12,000 -120 Level FlightAware
12:30PM 33.2720 -117.6450 281° West 114 131 11,900 -120 Descending FlightAware
12:30PM 33.2750 -117.6730 277° West 115 132 11,900 60 Level FlightAware
12:31PM 33.2790 -117.7000 280° West 140 161 12,000 60 Climbing FlightAware
12:32PM 33.2840 -117.7330 280° West 153 176 12,000  Level FlightAware
12:33PM 33.2890 -117.7710 279° West 148 170 12,000  Level FlightAware
12:33PM 33.2930 -117.8010 279° West 141 162 12,000  Level FlightAware
12:34PM 33.2970 -117.8320 279° West 141 162 12,000  Level FlightAware
12:35PM 33.3020 -117.8680 279° West 143 165 12,000  Level FlightAware
12:35PM 33.3060 -117.8980 279° West 142 163 12,000  Level FlightAware
12:36PM 33.3110 -117.9310 280° West 143 165 12,000  Level FlightAware
12:37PM 33.3150 -117.9650 278° West 143 165 12,000  Level FlightAware
12:37PM 33.3190 -117.9960 279° West 143 165 12,000  Level FlightAware
12:38PM 33.3240 -118.0320 279° West 143 165 12,000  Level FlightAware
12:39PM 33.3280 -118.0640 279° West 141 162 12,000  Level FlightAware
12:40PM 33.3320 -118.0970 278° West 142 163 12,000  Level FlightAware
12:40PM 33.3350 -118.1290 276° West 143 165 12,000  Level FlightAware
12:41PM 33.3380 -118.1600 277° West 142 163 12,000  Level FlightAware
12:42PM 33.3410 -118.1960 276° West 143 165 12,000  Level FlightAware
12:42PM 33.3440 -118.2280 276° West 144 166 12,000  Level FlightAware
12:43PM 33.3480 -118.2640 278° West 145 167 12,000  Level FlightAware
12:44PM 33.3520 -118.2960 279° West 146 168 12,000  Level FlightAware
12:44PM 33.3550 -118.3280 276° West 145 167 12,000  Level FlightAware
12:45PM 33.3590 -118.3630 278° West 145 167 12,000  Level FlightAware
12:46PM 33.3620 -118.3960 276° West 144 166 12,000  Level FlightAware
12:47PM 33.3650 -118.4300 276° West 143 165 12,000  Level FlightAware
12:47PM 33.3560 -118.4600 250° West 165 190 12,000  Level FlightAware
12:48PM 33.3280 -118.4830 214° Southwest 166 191 12,000  Level FlightAware
12:49PM 33.3150 -118.4950 218° Southwest 163 188 12,000  Level FlightAware
12:50PM 33.2800 -118.5330 222° Southwest 162 186 12,000  Level FlightAware
12:50PM 33.2580 -118.5580 224° Southwest 162 186 12,000  Level FlightAware
12:51PM 33.2400 -118.5800 226° Southwest 160 184 12,000  Level FlightAware
12:52PM 33.2190 -118.6080 228° Southwest 161 185 12,000  Level FlightAware
12:52PM 33.1940 -118.6400 227° Southwest 157 181 12,000  Level FlightAware
12:53PM 33.1770 -118.6620 227° Southwest 157 181 12,000  Level FlightAware
12:54PM 33.1600 -118.6840 227° Southwest 157 181 12,000  Level FlightAware
12:54PM 33.1390 -118.7110 227° Southwest 157 181 12,000  Level FlightAware
12:56PM 33.0922 -118.7764 227° Southwest 162 186 12,000  Level Los Angeles Center
01:01PM 32.9280 -118.9970 227° Southwest 162 186 12,000  Level FlightAware
01:02PM 32.9120 -119.0190 229° Southwest 162 186 12,000  Level FlightAware
01:03PM 32.8920 -119.0490 232° Southwest 162 186 12,000  Level FlightAware
01:03PM 32.8800 -119.0660 230° Southwest 162 186 12,000  Level FlightAware
01:04PM 32.8392 -119.1119 230° Southwest 162 186 12,000  Level Los Angeles Center
01:05PM 32.8078 -119.1525 227° Southwest 164 189 12,000  Level Los Angeles Center
01:06PM 32.7650 -119.2089 228° Southwest 165 190 12,000  Level Los Angeles Center
01:07PM 32.7356 -119.2494 229° Southwest 164 189 12,100  Climbing Los Angeles Center
01:08PM 32.7044 -119.2906 228° Southwest 165 190 12,100  Level Los Angeles Center
01:10PM 32.6725 -119.3303 226° Southwest 166 191 12,100  Level Los Angeles Center
01:11PM 32.6428 -119.3706 229° Southwest 164 189 12,100  Level Los Angeles Center
01:12PM 32.6122 -119.4114 228° Southwest 164 189 12,100  Level Los Angeles Center
01:13PM 32.5750 -119.4603 228° Southwest 166 191 12,100  Level Los Angeles Center
01:14PM 32.5408 -119.5019 226° Southwest 171 197 12,100  Level Los Angeles Center
01:15PM 32.5028 -119.5539 229° Southwest 199 229 12,100  Level Los Angeles Center
01:16PM 32.4614 -119.6097 229° Southwest 219 252 12,100  Level Los Angeles Center
01:17PM 32.4139 -119.6664 225° Southwest 234 269 12,100  Level Los Angeles Center
01:18PM 32.3708 -119.7236 228° Southwest 234 269 12,100  Level Los Angeles Center
01:19PM 32.3169 -119.7911 227° Southwest 235 270 12,100  Level Los Angeles Center
01:20PM 32.2731 -119.8478 228° Southwest 235 270 12,100  Level Los Angeles Center
01:21PM 32.2289 -119.9044 227° Southwest 235 270 12,100 -60 Level Los Angeles Center
01:22PM 32.1694 -119.9794 227° Southwest 236 272 12,000 -60 Descending Los Angeles Center
01:23PM 32.1250 -120.0353 227° Southwest 236 272 12,000  Level Los Angeles Center
01:24PM 32.0808 -120.0925 228° Southwest 235 270 12,000  Level Los Angeles Center
01:25PM 32.0353 -120.1481 226° Southwest 236 272 12,000  Level Los Angeles Center
01:26PM 31.9911 -120.2056 228° Southwest 237 273 12,000  Level Los Angeles Center
01:27PM 31.9419 -120.2658 226° Southwest 236 272 12,100  Climbing Los Angeles Center
01:28PM 31.9392 -120.3419 268° West 232 267 12,000 -60 Descending Los Angeles Center
01:29PM 31.9894 -120.3408 North 235 270 12,000  Level Los Angeles Center
01:30PM 32.0633 -120.2675 40° Northeast 265 305 12,100  Climbing Los Angeles Center
01:31PM 32.1194 -120.2106 41° Northeast 268 308 12,100  Level Los Angeles Center
01:32PM 32.1817 -120.1772 24° Northeast 253 291 12,100 -60 Level Los Angeles Center
01:34PM 32.1983 -120.2336 289° West 229 264 12,000 -60 Descending Los Angeles Center
01:35PM 32.1189 -120.2564 194° South 260 299 12,000  Level Los Angeles Center
01:36PM 32.0447 -120.2556 179° South 268 308 12,000  Level Los Angeles Center
01:37PM 31.9736 -120.2672 188° South 264 304 12,000  Level Los Angeles Center
01:38PM 31.9258 -120.3233 225° Southwest 245 282 12,000  Level Los Angeles Center
01:39PM 31.8803 -120.3806 227° Southwest 239 275 12,000  Level Los Angeles Center
01:40PM 31.8333 -120.4356 225° Southwest 239 275 12,000  Level Los Angeles Center
01:41PM 31.7772 -120.5031 226° Southwest 240 276 12,000  Level Los Angeles Center
01:42PM 31.7300 -120.5597 226° Southwest 242 278 12,000  Level Los Angeles Center
01:43PM 31.6825 -120.6156 225° Southwest 241 277 12,000  Level Los Angeles Center
01:44PM 31.6364 -120.6719 226° Southwest 240 276 12,000  Level Los Angeles Center
01:45PM 31.5886 -120.7281 225° Southwest 243 280 12,000  Level Los Angeles Center
01:46PM 31.5325 -120.7947 225° Southwest 240 276 12,000  Level Los Angeles Center
01:48PM 31.7341 -120.5268 48° Northeast  Level Estimated
01:55PM 32.6279 -119.3152 49° Northeast  Level Estimated
01:56PM 32.7546 -119.1401 49° Northeast  Level Estimated
01:57PM 32.8811 -118.9646 49° Northeast  Level Estimated
01:58PM 33.0074 -118.7886 49° Northeast  Level Estimated
01:59PM 33.1334 -118.6120 50° Northeast  Level Estimated
02:00PM 33.2591 -118.4350 50° Northeast  Level Estimated
02:01PM 33.3846 -118.2574 50° Northeast  Level Estimated
02:02PM 33.5098 -118.0793 50° Northeast  Level Estimated
02:03PM 33.6348 -117.9007 50° Northeast  Level Estimated
02:04PM 33.7596 -117.7216 50° Northeast  Level Estimated
02:05PM 33.8840 -117.5420 50° Northeast  Level Estimated
02:06PM 34.0082 -117.3618 50° Northeast  Level Estimated
02:07PM 34.0954 -117.2349 50° Northeast  Level Estimated
02:08PM 34.0954 -117.2349 40° Northeast  Level Estimated
02:09PM 34.0954 -117.2349 40° Northeast  Level Estimated
02:10PM 34.0954 -117.2349 40° Northeast  Level Estimated
02:11PM 34.0954 -117.2349 40° Northeast  Level Estimated